Time;durP1;ratioP1;P1;durP2;ratioP2;P2;SDS_P1;SDS_P2;PMS_P1;PMS_P2;Temp;Humidity;BMP_temperature;BMP_pressure;BME280_temperature;BME280_humidity;BME280_pressure;Samples;Min_cycle;Max_cycle;Signal;HPM_P1;HPM_P2
2023/04/29 00:01:58;;;;;;;;;;;;;;;11.86;100.00;97596.47;5104660;28;19924;-65
2023/04/29 00:04:25;;;;;;;;;;;;;;;11.87;100.00;97592.75;5104310;28;19924;-65
2023/04/29 00:06:51;;;;;;;;;;;;;;;11.97;100.00;97597.22;5100954;28;20020;-66
2023/04/29 00:09:19;;;;;;;;;;;;;;;12.00;100.00;97585.97;5100972;28;19952;-66
2023/04/29 00:11:46;;;;;;;;;;;;;;;12.03;100.00;97588.06;5103783;28;19983;-66
2023/04/29 00:14:13;;;;;;;;;;;;;;;11.99;100.00;97588.91;5103713;28;19924;-65
2023/04/29 00:16:39;;;;;;;;;;;;;;;11.89;100.00;97590.56;5102043;28;19924;-65
2023/04/29 00:19:06;;;;;;;;;;;;;;;11.87;100.00;97590.06;5100816;28;19925;-65
2023/04/29 00:21:32;;;;;;;;;;;;;;;11.86;100.00;97579.63;5101581;28;19954;-65
2023/04/29 00:23:58;;;;;;;;;;;;;;;11.90;100.00;97581.47;5104231;28;19924;-65
2023/04/29 00:26:27;;;;;;;;;;;;;;;11.95;100.00;97579.81;5103946;28;19931;-65
2023/04/29 00:28:53;;;;;;;;;;;;;;;11.94;100.00;97580.91;5100600;28;19925;-65
2023/04/29 00:31:20;;;;;;;;;;;;;;;12.03;100.00;97574.69;5100481;28;19997;-66
2023/04/29 00:33:46;;;;;;;;;;;;;;;12.17;100.00;97569.47;5103633;28;19924;-65
2023/04/29 00:36:13;;;;;;;;;;;;;;;12.07;100.00;97574.94;5103723;28;19924;-66
2023/04/29 00:38:39;;;;;;;;;;;;;;;12.08;100.00;97571.16;5101642;28;19966;-66
2023/04/29 00:41:05;;;;;;;;;;;;;;;12.12;100.00;97564.19;5100120;28;19988;-65
2023/04/29 00:43:33;;;;;;;;;;;;;;;12.11;100.00;97570.59;5101287;28;19967;-65
2023/04/29 00:45:59;;;;;;;;;;;;;;;12.13;100.00;97573.81;5103675;28;19959;-65
2023/04/29 00:48:26;;;;;;;;;;;;;;;12.07;100.00;97575.72;5103205;28;20332;-65
2023/04/29 00:50:52;;;;;;;;;;;;;;;12.10;100.00;97579.72;5100120;28;19973;-65
2023/04/29 00:53:19;;;;;;;;;;;;;;;12.06;100.00;97565.31;5099959;28;20076;-65
2023/04/29 00:55:46;;;;;;;;;;;;;;;12.06;100.00;97563.44;5102775;28;19924;-65
2023/04/29 00:58:12;;;;;;;;;;;;;;;11.99;100.00;97565.63;5103499;28;19988;-65
2023/04/29 01:00:42;;;;;;;;;;;;;;;11.89;100.00;97568.38;5101365;28;19924;-66
2023/04/29 01:03:09;;;;;;;;;;;;;;;11.86;100.00;97569.72;5099931;28;19920;-66
2023/04/29 01:05:35;;;;;;;;;;;;;;;11.86;100.00;97568.94;5101052;28;19989;-65
2023/04/29 01:08:06;;;;;;;;;;;;;;;11.81;100.00;97572.44;5103333;28;19959;-66
2023/04/29 01:10:35;;;;;;;;;;;;;;;11.77;100.00;97575.94;5101850;28;19948;-65
2023/04/29 01:13:06;;;;;;;;;;;;;;;11.77;100.00;97582.09;5099699;28;19924;-66
2023/04/29 01:15:34;;;;;;;;;;;;;;;11.84;100.00;97584.47;5100575;28;19959;-65
2023/04/29 01:18:05;;;;;;;;;;;;;;;11.96;100.00;97586.78;5102974;28;19999;-66
2023/04/29 01:20:32;;;;;;;;;;;;;;;12.05;100.00;97577.06;5101930;28;19978;-65
2023/04/29 01:22:58;;;;;;;;;;;;;;;11.95;100.00;97566.44;5098353;28;19940;-65
2023/04/29 01:25:26;;;;;;;;;;;;;;;11.89;100.00;97563.00;5099179;28;19924;-65
2023/04/29 01:27:57;;;;;;;;;;;;;;;11.87;100.00;97563.31;5102196;28;20423;-66
2023/04/29 01:30:28;;;;;;;;;;;;;;;11.84;100.00;97571.88;5102719;28;19975;-66
2023/04/29 01:33:03;;;;;;;;;;;;;;;12.01;100.00;97576.06;5091580;28;19958;-66
2023/04/29 01:35:37;;;;;;;;;;;;;;;12.02;100.00;97570.41;5099453;28;19980;-65
2023/04/29 01:38:10;;;;;;;;;;;;;;;12.07;100.00;97574.94;5102500;28;19988;-65
2023/04/29 01:40:42;;;;;;;;;;;;;;;11.79;100.00;97571.91;5100832;28;19991;-65
2023/04/29 01:43:11;;;;;;;;;;;;;;;11.75;100.00;97578.13;5098909;28;19924;-66
2023/04/29 01:45:40;;;;;;;;;;;;;;;11.91;100.00;97575.03;5100792;28;20565;-66
2023/04/29 01:48:06;;;;;;;;;;;;;;;11.78;100.00;97564.19;5102562;28;19979;-66
2023/04/29 01:50:32;;;;;;;;;;;;;;;11.71;100.00;97553.78;5101202;28;19995;-65
2023/04/29 01:52:59;;;;;;;;;;;;;;;11.69;100.00;97553.25;5098637;28;19959;-65
2023/04/29 01:55:25;;;;;;;;;;;;;;;11.68;100.00;97562.34;5098668;28;19952;-66
2023/04/29 01:57:53;;;;;;;;;;;;;;;11.73;100.00;97574.91;5102431;28;19988;-66
2023/04/29 02:00:19;;;;;;;;;;;;;;;11.76;100.00;97577.81;5102064;28;19924;-65
2023/04/29 02:02:46;;;;;;;;;;;;;;;11.72;100.00;97562.63;5099050;28;19924;-65
2023/04/29 02:05:12;;;;;;;;;;;;;;;11.78;100.00;97569.53;5098730;28;19975;-65
2023/04/29 02:07:39;;;;;;;;;;;;;;;11.74;100.00;97566.59;5100558;28;19980;-66
2023/04/29 02:10:05;;;;;;;;;;;;;;;11.74;100.00;97571.97;5102201;28;19984;-65
2023/04/29 02:12:32;;;;;;;;;;;;;;;11.76;100.00;97577.81;5100881;28;19959;-65
2023/04/29 02:15:00;;;;;;;;;;;;;;;11.79;100.00;97569.22;5098429;28;19951;-66
2023/04/29 02:17:26;;;;;;;;;;;;;;;11.81;100.00;97572.44;5098619;28;19935;-65
2023/04/29 02:19:53;;;;;;;;;;;;;;;11.95;100.00;97571.78;5102046;28;19946;-65
2023/04/29 02:22:20;;;;;;;;;;;;;;;11.95;100.00;97577.16;5101979;28;19920;-65
2023/04/29 02:24:46;;;;;;;;;;;;;;;12.01;100.00;97586.75;5098840;28;20527;-65
2023/04/29 02:27:13;;;;;;;;;;;;;;;12.05;100.00;97585.09;5098392;28;19925;-65
2023/04/29 02:29:39;;;;;;;;;;;;;;;12.03;100.00;97581.91;5100306;28;19928;-65
2023/04/29 02:32:07;;;;;;;;;;;;;;;11.95;100.00;97583.31;5101902;28;19987;-65
2023/04/29 02:34:33;;;;;;;;;;;;;;;11.96;100.00;97589.47;5100595;28;19924;-65
2023/04/29 02:36:59;;;;;;;;;;;;;;;12.00;100.00;97574.44;5098123;28;19925;-65
2023/04/29 02:39:26;;;;;;;;;;;;;;;12.01;100.00;97571.47;5098497;28;19947;-65
2023/04/29 02:41:54;;;;;;;;;;;;;;;12.03;100.00;97563.19;5101422;28;19928;-65
2023/04/29 02:44:20;;;;;;;;;;;;;;;12.16;100.00;97559.88;5101722;28;19960;-65
2023/04/29 02:46:46;;;;;;;;;;;;;;;12.12;100.00;97551.59;5098590;28;19978;-67
2023/04/29 02:49:14;;;;;;;;;;;;;;;12.11;100.00;97549.19;5098098;28;19924;-66
2023/04/29 02:51:41;;;;;;;;;;;;;;;12.07;100.00;97569.59;5100234;28;19960;-65
2023/04/29 02:54:07;;;;;;;;;;;;;;;12.14;100.00;97567.34;5101615;28;19924;-65
2023/04/29 02:56:33;;;;;;;;;;;;;;;12.12;100.00;97572.22;5100236;28;19952;-66
2023/04/29 02:59:00;;;;;;;;;;;;;;;12.12;100.00;97564.19;5098152;28;19959;-65
2023/04/29 03:01:26;;;;;;;;;;;;;;;12.14;100.00;97572.72;5098166;28;19984;-66
2023/04/29 03:03:53;;;;;;;;;;;;;;;12.14;100.00;97564.69;5101302;28;20010;-65
2023/04/29 03:06:21;;;;;;;;;;;;;;;12.04;100.00;97564.78;5101632;28;19923;-66
2023/04/29 03:08:47;;;;;;;;;;;;;;;11.98;100.00;97565.88;5098470;28;19924;-65
2023/04/29 03:11:13;;;;;;;;;;;;;;;11.99;100.00;97564.81;5098002;28;19988;-65
2023/04/29 03:13:40;;;;;;;;;;;;;;;12.06;100.00;97562.63;5100031;28;19996;-65
2023/04/29 03:16:06;;;;;;;;;;;;;;;12.04;100.00;97567.47;5101321;28;19991;-66
2023/04/29 03:18:33;;;;;;;;;;;;;;;11.90;100.00;97553.91;5100114;28;19967;-66
2023/04/29 03:20:59;;;;;;;;;;;;;;;11.92;100.00;97567.81;5097823;28;19925;-65
2023/04/29 03:23:27;;;;;;;;;;;;;;;11.95;100.00;97569.13;5098027;28;19925;-65
2023/04/29 03:25:54;;;;;;;;;;;;;;;11.94;100.00;97568.34;5101250;28;19958;-64
2023/04/29 03:28:20;;;;;;;;;;;;;;;11.94;100.00;97570.22;5101141;28;19924;-65
2023/04/29 03:30:47;;;;;;;;;;;;;;;11.95;100.00;97561.91;5098126;28;20000;-65
2023/04/29 03:33:13;;;;;;;;;;;;;;;11.90;100.00;97562.75;5097639;28;19956;-66
2023/04/29 03:35:40;;;;;;;;;;;;;;;11.89;100.00;97558.47;5099551;28;19971;-65
2023/04/29 03:38:06;;;;;;;;;;;;;;;11.96;100.00;97565.38;5101080;28;19924;-64
2023/04/29 03:40:34;;;;;;;;;;;;;;;11.95;100.00;97556.53;5099879;28;19959;-65
2023/04/29 03:43:00;;;;;;;;;;;;;;;12.05;100.00;97553.78;5097082;28;19924;-65
2023/04/29 03:45:26;;;;;;;;;;;;;;;12.09;100.00;97554.84;5097931;28;19928;-65
2023/04/29 03:47:53;;;;;;;;;;;;;;;12.07;100.00;97548.94;5101005;28;19988;-66
2023/04/29 03:50:20;;;;;;;;;;;;;;;12.21;100.00;97543.75;5103013;28;19924;-66
2023/04/29 03:52:46;;;;;;;;;;;;;;;12.23;100.00;97547.72;5101696;28;20293;-65
2023/04/29 03:55:12;;;;;;;;;;;;;;;12.13;100.00;97547.03;5100982;28;19991;-65
2023/04/29 03:57:40;;;;;;;;;;;;;;;12.14;100.00;97553.97;5103018;28;19974;-65
2023/04/29 04:00:07;;;;;;;;;;;;;;;12.06;100.00;97563.44;5104412;28;19979;-65
2023/04/29 04:02:34;;;;;;;;;;;;;;;12.04;100.00;97568.25;5103056;28;19928;-65
2023/04/29 04:05:01;;;;;;;;;;;;;;;12.10;100.00;97569.78;5100917;28;19936;-65
2023/04/29 04:07:27;;;;;;;;;;;;;;;12.20;100.00;97563.56;5101318;28;19924;-66
2023/04/29 04:09:53;;;;;;;;;;;;;;;12.25;100.00;97566.22;5104488;28;19963;-66
2023/04/29 04:12:20;;;;;;;;;;;;;;;12.27;100.00;97561.34;5104403;28;19979;-65
2023/04/29 04:14:48;;;;;;;;;;;;;;;12.29;100.00;97572.56;5100098;28;19924;-65
2023/04/29 04:17:14;;;;;;;;;;;;;;;12.29;100.00;97569.91;5100616;28;19976;-66
2023/04/29 04:19:40;;;;;;;;;;;;;;;12.18;100.00;97569.22;5102787;28;19946;-65
2023/04/29 04:22:07;;;;;;;;;;;;;;;12.21;100.00;97584.72;5104391;28;19980;-65
2023/04/29 04:24:33;;;;;;;;;;;;;;;12.23;100.00;97587.09;5102693;28;19936;-65
2023/04/29 04:27:00;;;;;;;;;;;;;;;12.18;100.00;97576.44;5100557;28;19976;-65
2023/04/29 04:29:27;;;;;;;;;;;;;;;12.15;100.00;97575.13;5100909;28;19992;-65
2023/04/29 04:31:54;;;;;;;;;;;;;;;12.23;100.00;97574.50;5104036;28;19991;-65
2023/04/29 04:34:21;;;;;;;;;;;;;;;12.24;100.00;97569.97;5104013;28;19959;-65
2023/04/29 04:36:47;;;;;;;;;;;;;;;12.22;100.00;97580.97;5100380;28;19963;-65
2023/04/29 04:39:13;;;;;;;;;;;;;;;12.21;100.00;97582.03;5100235;28;19978;-65
2023/04/29 04:41:40;;;;;;;;;;;;;;;12.14;100.00;97580.75;5101903;28;19960;-65
2023/04/29 04:44:06;;;;;;;;;;;;;;;12.24;100.00;97586.03;5103809;28;19934;-65
2023/04/29 04:46:33;;;;;;;;;;;;;;;12.28;100.00;97576.34;5102355;28;19967;-66
2023/04/29 04:49:00;;;;;;;;;;;;;;;12.33;100.00;97576.28;5100151;28;19921;-66
2023/04/29 04:51:27;;;;;;;;;;;;;;;12.37;100.00;97577.34;5100349;28;19976;-66
2023/04/29 04:53:54;;;;;;;;;;;;;;;12.52;100.00;97577.19;5103545;28;19960;-65
2023/04/29 04:56:20;;;;;;;;;;;;;;;12.59;100.00;97583.03;5103442;28;19924;-66
2023/04/29 04:58:47;;;;;;;;;;;;;;;12.32;100.00;97580.84;5100145;28;19935;-66
2023/04/29 05:01:13;;;;;;;;;;;;;;;12.25;100.00;97579.59;5099592;28;19960;-65
2023/04/29 05:03:39;;;;;;;;;;;;;;;12.47;100.00;97577.25;5101803;28;20047;-65
2023/04/29 05:06:07;;;;;;;;;;;;;;;12.58;100.00;97581.41;5102967;28;19934;-66
2023/04/29 05:08:33;;;;;;;;;;;;;;;12.56;100.00;97578.22;5102012;28;19952;-66
2023/04/29 05:11:00;;;;;;;;;;;;;;;12.62;100.00;97582.44;5099491;28;19924;-66
2023/04/29 05:13:26;;;;;;;;;;;;;;;12.40;100.00;97590.16;5099521;28;19992;-66
2023/04/29 05:15:53;;;;;;;;;;;;;;;12.35;100.00;97596.34;5101702;28;19932;-65
2023/04/29 05:18:19;;;;;;;;;;;;;;;12.61;100.00;97580.84;5102736;28;19984;-65
2023/04/29 05:20:46;;;;;;;;;;;;;;;12.71;100.00;97579.94;5098568;28;19978;-66
2023/04/29 05:23:13;;;;;;;;;;;;;;;12.70;100.00;97584.50;5099292;28;19928;-66
2023/04/29 05:25:40;;;;;;;;;;;;;;;12.56;100.00;97593.50;5101279;28;19927;-66
2023/04/29 05:28:07;;;;;;;;;;;;;;;12.51;100.00;97597.00;5102529;28;19983;-66
2023/04/29 05:30:33;;;;;;;;;;;;;;;12.55;100.00;97589.22;5101039;28;19935;-65
2023/04/29 05:33:00;;;;;;;;;;;;;;;12.44;100.00;97593.84;5099052;28;19992;-66
2023/04/29 05:35:26;;;;;;;;;;;;;;;12.44;100.00;97596.53;5098919;28;19960;-67
2023/04/29 05:37:52;;;;;;;;;;;;;;;12.62;100.00;97593.16;5102652;28;19952;-66
2023/04/29 05:40:22;;;;;;;;;;;;;;;12.78;100.00;97596.50;5102592;28;19963;-67
2023/04/29 05:42:48;;;;;;;;;;;;;;;12.78;100.00;97607.22;5099017;28;19988;-65
2023/04/29 05:45:15;;;;;;;;;;;;;;;12.72;100.00;97609.13;5114630;28;19924;-66
2023/04/29 05:47:41;;;;;;;;;;;;;;;12.65;100.00;97607.88;5116859;28;19932;-65
2023/04/29 05:50:08;;;;;;;;;;;;;;;12.54;100.00;97606.34;5102343;28;19983;-66
2023/04/29 05:52:34;;;;;;;;;;;;;;;12.72;100.00;97608.34;5100974;28;19931;-66
2023/04/29 05:55:00;;;;;;;;;;;;;;;12.85;100.00;97619.16;5098780;28;19955;-66
2023/04/29 05:57:28;;;;;;;;;;;;;;;12.81;100.00;97622.72;5098950;28;19966;-66
2023/04/29 05:59:54;;;;;;;;;;;;;;;12.78;100.00;97618.69;5102399;28;19991;-67
2023/04/29 06:02:21;;;;;;;;;;;;;;;12.83;100.00;97626.69;5102235;28;20038;-66
2023/04/29 06:04:47;;;;;;;;;;;;;;;13.04;100.00;97629.97;5098898;28;19951;-67
2023/04/29 06:07:14;;;;;;;;;;;;;;;13.06;100.00;97635.03;5098672;28;19975;-65
2023/04/29 06:09:41;;;;;;;;;;;;;;;13.00;100.00;97631.59;5100692;28;19991;-66
2023/04/29 06:12:07;;;;;;;;;;;;;;;12.98;100.00;97633.78;5101700;28;19931;-66
2023/04/29 06:14:35;;;;;;;;;;;;;;;12.81;100.00;97638.78;5100592;28;19991;-66
2023/04/29 06:17:02;;;;;;;;;;;;;;;12.77;100.00;97643.13;5098277;28;19951;-65
2023/04/29 06:19:28;;;;;;;;;;;;;;;12.67;100.00;97643.22;5098725;28;19924;-67
2023/04/29 06:21:56;;;;;;;;;;;;;;;12.61;100.00;97647.81;5101820;28;19967;-66
2023/04/29 06:24:22;;;;;;;;;;;;;;;12.56;100.00;97647.88;5101584;28;19931;-66
2023/04/29 06:26:48;;;;;;;;;;;;;;;12.74;100.00;97647.16;5098587;28;19931;-65
2023/04/29 06:29:15;;;;;;;;;;;;;;;12.72;100.00;97657.34;5098295;28;19969;-65
2023/04/29 06:31:42;;;;;;;;;;;;;;;12.76;100.00;97652.22;5100360;28;19925;-67
2023/04/29 06:34:09;;;;;;;;;;;;;;;12.80;100.00;97655.94;5100356;28;20015;-65
2023/04/29 06:36:36;;;;;;;;;;;;;;;12.90;100.00;97655.84;5099773;28;19928;-66
2023/04/29 06:39:02;;;;;;;;;;;;;;;12.89;100.00;97657.72;5098246;28;19938;-65
2023/04/29 06:41:28;;;;;;;;;;;;;;;12.84;100.00;97660.44;5098148;28;19961;-66
2023/04/29 06:43:54;;;;;;;;;;;;;;;12.85;100.00;97661.25;5101682;28;19924;-66
2023/04/29 06:46:21;;;;;;;;;;;;;;;13.18;100.00;97664.97;5101787;28;19979;-66
2023/04/29 06:48:48;;;;;;;;;;;;;;;13.34;100.00;97666.38;5097056;28;19935;-65
2023/04/29 06:51:15;;;;;;;;;;;;;;;13.53;100.00;97659.16;5098108;28;19992;-66
2023/04/29 06:53:41;;;;;;;;;;;;;;;13.67;100.00;97659.25;5100164;28;19979;-66
2023/04/29 06:56:07;;;;;;;;;;;;;;;13.13;100.00;97657.75;5101500;28;19992;-66
2023/04/29 06:58:34;;;;;;;;;;;;;;;13.15;100.00;97665.53;5100336;28;20026;-66
2023/04/29 07:01:02;;;;;;;;;;;;;;;13.48;100.00;97660.03;5098085;28;19984;-66
2023/04/29 07:03:28;;;;;;;;;;;;;;;13.23;100.00;97659.53;5098358;28;19948;-65
2023/04/29 07:05:56;;;;;;;;;;;;;;;13.24;100.00;97663.81;5101446;28;19951;-65
2023/04/29 07:08:22;;;;;;;;;;;;;;;13.52;100.00;97677.13;5101673;28;19984;-66
2023/04/29 07:10:53;;;;;;;;;;;;;;;13.65;100.00;97681.00;5098248;28;19956;-65
2023/04/29 07:13:20;;;;;;;;;;;;;;;14.01;100.00;97684.03;5098062;28;19924;-66
2023/04/29 07:15:46;;;;;;;;;;;;;;;14.08;100.00;97673.69;5100851;28;19992;-65
2023/04/29 07:18:12;;;;;;;;;;;;;;;14.36;100.00;97674.69;5101068;28;19959;-66
2023/04/29 07:20:39;;;;;;;;;;;;;;;14.46;100.00;97669.13;5099389;28;19963;-67
2023/04/29 07:23:06;;;;;;;;;;;;;;;14.46;100.00;97675.31;5098020;28;20031;-66
2023/04/29 07:25:33;;;;;;;;;;;;;;;14.42;100.00;97668.13;5101223;28;19988;-66
2023/04/29 07:28:00;;;;;;;;;;;;;;;14.52;100.00;97670.63;5105308;28;19972;-66
2023/04/29 07:30:26;;;;;;;;;;;;;;;14.69;100.00;97673.59;5104948;28;19979;-67
2023/04/29 07:32:53;;;;;;;;;;;;;;;14.94;100.00;97675.03;5101688;28;19984;-66
2023/04/29 07:35:19;;;;;;;;;;;;;;;14.88;100.00;97673.53;5101621;28;20011;-67
2023/04/29 07:37:47;;;;;;;;;;;;;;;14.90;100.00;97679.41;5103370;28;19932;-66
2023/04/29 07:40:14;;;;;;;;;;;;;;;14.46;100.00;97671.81;5103981;28;19966;-66
2023/04/29 07:42:41;;;;;;;;;;;;;;;14.73;100.00;97679.19;5102605;28;19928;-67
2023/04/29 07:45:07;;;;;;;;;;;;;;;14.94;100.00;97680.41;5101643;28;19931;-66
2023/04/29 07:47:34;;;;;;;;;;;;;;;14.79;100.00;97680.69;5102882;28;19968;-67
2023/04/29 07:50:00;;;;;;;;;;;;;;;14.70;100.00;97683.22;5105089;28;19959;-66
2023/04/29 07:52:27;;;;;;;;;;;;;;;14.92;100.00;97683.38;5104962;28;19955;-67
2023/04/29 07:54:54;;;;;;;;;;;;;;;14.93;100.00;97685.00;5101432;28;19935;-66
2023/04/29 07:57:22;;;;;;;;;;;;;;;15.12;100.00;97682.22;5101530;28;19920;-67
2023/04/29 07:59:51;;;;;;;;;;;;;;;15.03;100.00;97682.13;5104946;28;19943;-66
2023/04/29 08:02:17;;;;;;;;;;;;;;;15.13;100.00;97678.47;5105014;28;19924;-67
2023/04/29 08:04:44;;;;;;;;;;;;;;;14.81;100.00;97673.91;5102481;28;19956;-66
2023/04/29 08:07:10;;;;;;;;;;;;;;;15.22;100.00;97686.63;5101609;28;20039;-66
2023/04/29 08:09:36;;;;;;;;;;;;;;;15.32;100.00;97687.22;5102940;28;19924;-66
2023/04/29 08:12:03;;;;;;;;;;;;;;;15.61;100.00;97684.25;5105331;28;19966;-65
2023/04/29 08:14:30;;;;;;;;;;;;;;;15.32;100.00;97679.13;5104581;28;20582;-67
2023/04/29 08:16:57;;;;;;;;;;;;;;;15.61;100.00;97674.28;5101445;28;19952;-66
2023/04/29 08:19:23;;;;;;;;;;;;;;;15.24;100.00;97684.44;5101053;28;19936;-66
2023/04/29 08:21:50;;;;;;;;;;;;;;;15.27;100.00;97687.31;5104518;28;19979;-66
2023/04/29 08:24:17;;;;;;;;;;;;;;;15.37;100.00;97686.34;5104459;28;19924;-68
2023/04/29 08:26:43;;;;;;;;;;;;;;;15.37;100.00;97681.75;5102015;28;19924;-66
2023/04/29 08:29:09;;;;;;;;;;;;;;;15.42;100.00;97688.91;5100819;28;19928;-67
2023/04/29 08:31:37;;;;;;;;;;;;;;;15.49;100.00;97689.34;5102298;28;19955;-67
2023/04/29 08:34:03;;;;;;;;;;;;;;;15.60;100.00;97682.66;5104397;28;19987;-66
2023/04/29 08:36:30;;;;;;;;;;;;;;;15.67;100.00;97680.34;5103345;28;19931;-67
2023/04/29 08:38:56;;;;;;;;;;;;;;;15.70;100.00;97678.97;5100451;28;20043;-65
2023/04/29 08:41:24;;;;;;;;;;;;;;;15.68;100.00;97683.84;5100196;28;19980;-66
2023/04/29 08:43:50;;;;;;;;;;;;;;;15.54;100.00;97673.09;5104118;28;19924;-67
2023/04/29 08:46:17;;;;;;;;;;;;;;;15.51;100.00;97685.25;5103954;28;19924;-66
2023/04/29 08:48:45;;;;;;;;;;;;;;;15.43;100.00;97693.22;5101138;28;19991;-66
2023/04/29 08:51:11;;;;;;;;;;;;;;;15.64;100.00;97689.03;5115913;28;19924;-68
2023/04/29 08:53:38;;;;;;;;;;;;;;;15.94;100.00;97692.97;5101846;28;19984;-66
2023/04/29 08:56:09;;;;;;;;;;;;;;;16.05;100.00;97695.16;5103972;28;20011;-66
2023/04/29 08:58:36;;;;;;;;;;;;;;;15.76;100.00;97686.63;5102211;28;19935;-66
2023/04/29 09:01:02;;;;;;;;;;;;;;;15.55;100.00;97690.84;5100372;28;20024;-66
2023/04/29 09:03:31;;;;;;;;;;;;;;;15.72;100.00;97684.84;5100500;28;19967;-67
2023/04/29 09:06:00;;;;;;;;;;;;;;;15.23;100.00;97688.19;5103512;28;19962;-68
2023/04/29 09:08:27;;;;;;;;;;;;;;;15.67;100.00;97680.34;5103605;28;19946;-67
2023/04/29 09:10:53;;;;;;;;;;;;;;;15.71;100.00;97694.03;5100103;28;19925;-66
2023/04/29 09:13:23;;;;;;;;;;;;;;;15.82;100.00;97690.81;5100088;28;19944;-67
2023/04/29 09:15:49;;;;;;;;;;;;;;;15.56;100.00;97692.44;5103365;28;19924;-67
2023/04/29 09:18:30;;;;;;;;;;;;;;;15.41;100.00;97690.03;5103396;28;19946;-66
2023/04/29 09:20:57;;;;;;;;;;;;;;;15.39;100.00;97686.81;5092248;28;19971;-66
2023/04/29 09:23:36;;;;;;;;;;;;;;;15.07;100.00;97687.72;5099780;28;19956;-66
2023/04/29 09:26:02;;;;;;;;;;;;;;;15.35;100.00;97691.22;5093321;28;19931;-66
2023/04/29 09:28:29;;;;;;;;;;;;;;;15.65;100.00;97690.66;5100013;28;19921;-66
2023/04/29 09:30:55;;;;;;;;;;;;;;;15.91;100.00;97689.00;5103655;28;19950;-66
2023/04/29 09:33:22;;;;;;;;;;;;;;;16.18;100.00;97688.91;5103001;28;19983;-66
2023/04/29 09:35:48;;;;;;;;;;;;;;;16.11;100.00;97685.06;5097105;28;19963;-66
2023/04/29 09:38:15;;;;;;;;;;;;;;;15.80;100.00;97684.13;5102859;28;19928;-65
2023/04/29 09:40:43;;;;;;;;;;;;;;;16.15;100.00;97689.53;5100541;28;19983;-67
2023/04/29 09:43:14;;;;;;;;;;;;;;;16.25;100.00;97690.44;5099307;28;19920;-66
2023/04/29 09:45:41;;;;;;;;;;;;;;;16.35;100.00;97695.56;5101358;28;19956;-66
2023/04/29 09:48:08;;;;;;;;;;;;;;;16.39;100.00;97694.66;5102796;28;19986;-67
2023/04/29 09:50:36;;;;;;;;;;;;;;;16.42;100.00;97690.56;5102002;28;20644;-66
2023/04/29 09:53:02;;;;;;;;;;;;;;;16.40;100.00;97696.22;5101939;28;19912;-67
2023/04/29 09:55:30;;;;;;;;;;;;;;;16.52;100.00;97693.00;5104043;28;19924;-67
2023/04/29 09:57:59;;;;;;;;;;;;;;;16.39;100.00;97694.66;5104175;28;19924;-67
2023/04/29 10:00:28;;;;;;;;;;;;;;;16.40;100.00;97693.53;5103032;28;19928;-66
2023/04/29 10:02:56;;;;;;;;;;;;;;;16.52;100.00;97696.50;5091488;28;19924;-70
2023/04/29 10:05:23;;;;;;;;;;;;;;;16.60;100.00;97695.78;5099019;28;19924;-67
2023/04/29 10:07:50;;;;;;;;;;;;;;;16.56;100.00;97700.19;5102314;28;19956;-67
2023/04/29 10:10:16;;;;;;;;;;;;;;;16.44;100.00;97699.13;5102197;28;19924;-67
2023/04/29 10:12:44;;;;;;;;;;;;;;;16.51;100.00;97702.19;5099847;28;19924;-67
2023/04/29 10:15:14;;;;;;;;;;;;;;;16.10;100.00;97703.13;5099135;28;19946;-67
2023/04/29 10:17:43;;;;;;;;;;;;;;;16.41;100.00;97702.44;5101049;28;19924;-68
2023/04/29 10:20:12;;;;;;;;;;;;;;;16.32;100.00;97704.25;5102321;28;19958;-67
2023/04/29 10:22:42;;;;;;;;;;;;;;;16.13;100.00;97716.00;5099526;28;19935;-68
2023/04/29 10:25:10;;;;;;;;;;;;;;;16.20;100.00;97708.28;5098735;28;19943;-67
2023/04/29 10:27:36;;;;;;;;;;;;;;;16.34;100.00;97705.53;5099967;28;19951;-66
2023/04/29 10:30:03;;;;;;;;;;;;;;;16.49;100.00;97704.41;5102042;28;19971;-66
2023/04/29 10:32:32;;;;;;;;;;;;;;;16.41;100.00;97707.81;5101425;28;19924;-66
2023/04/29 10:34:59;;;;;;;;;;;;;;;16.51;100.00;97712.97;5098411;28;19928;-66
2023/04/29 10:37:26;;;;;;;;;;;;;;;16.34;100.00;97710.94;5098508;28;19935;-66
2023/04/29 10:39:58;;;;;;;;;;;;;;;16.31;100.00;97718.84;5090227;28;20052;-66
2023/04/29 10:42:30;;;;;;;;;;;;;;;16.28;100.00;97720.22;5098039;28;19954;-66
2023/04/29 10:45:15;;;;;;;;;;;;;;;16.16;100.00;97720.78;5091022;28;19924;-67
2023/04/29 10:48:05;;;;;;;;;;;;;;;16.20;100.00;97723.66;5100147;28;19974;-66
2023/04/29 10:50:31;;;;;;;;;;;;;;;16.32;100.00;97720.41;5100889;28;19924;-66
2023/04/29 10:53:01;;;;;;;;;;;;;;;16.04;100.00;97715.13;5098102;28;19987;-66
2023/04/29 10:55:28;;;;;;;;;;;;;;;15.87;100.00;97720.34;5098384;28;19931;-66
2023/04/29 10:57:55;;;;;;;;;;;;;;;16.12;100.00;97711.69;5101452;28;19988;-66
2023/04/29 11:56:15;;;;;;;;;;;;;;;16.74;100.00;97714.63;5161932;27;19975;-66
2023/04/29 11:58:42;;;;;;;;;;;;;;;16.99;100.00;97722.06;5156437;27;19982;-65
2023/04/29 12:01:08;;;;;;;;;;;;;;;17.09;100.00;97707.50;5156458;27;19931;-66
2023/04/29 12:03:35;;;;;;;;;;;;;;;17.13;100.00;97720.09;5157538;27;19958;-65
2023/04/29 12:06:02;;;;;;;;;;;;;;;17.14;100.00;97720.88;5154920;27;19993;-65
2023/04/29 12:08:29;;;;;;;;;;;;;;;16.96;100.00;97714.56;5156253;27;19990;-66
2023/04/29 12:10:56;;;;;;;;;;;;;;;17.05;100.00;97725.44;5156446;27;19965;-65
2023/04/29 12:13:24;;;;;;;;;;;;;;;17.19;100.00;97721.53;5156289;27;19982;-65
2023/04/29 12:15:51;;;;;;;;;;;;;;;16.99;100.00;97726.69;5159589;27;19986;-65
2023/04/29 12:18:19;;;;;;;;;;;;;;;16.85;100.00;97739.41;5159660;27;19954;-65
2023/04/29 12:20:47;;;;;;;;;;;;;;;16.91;100.00;97740.88;5156803;27;19978;-66
2023/04/29 12:23:13;;;;;;;;;;;;;;;16.73;100.00;97748.06;5155999;27;19941;-65
2023/04/29 12:25:40;;;;;;;;;;;;;;;16.72;100.00;97738.38;5157691;27;19980;-66
2023/04/29 12:28:11;;;;;;;;;;;;;;;16.86;100.00;97728.34;5160038;27;19923;-65
2023/04/29 12:30:39;;;;;;;;;;;;;;;16.60;100.00;97738.13;5158145;27;19919;-66
2023/04/29 12:33:07;;;;;;;;;;;;;;;16.67;100.00;97747.41;5156369;27;19987;-65
2023/04/29 12:35:34;;;;;;;;;;;;;;;16.48;100.00;97740.53;5156182;27;19959;-65
2023/04/29 12:38:01;;;;;;;;;;;;;;;16.67;100.00;97735.81;5152629;27;19962;-69
2023/04/29 12:40:27;;;;;;;;;;;;;;;16.46;100.00;97734.66;5159452;27;19990;-67
2023/04/29 12:42:54;;;;;;;;;;;;;;;16.55;100.00;97746.34;5156455;27;19943;-66
2023/04/29 12:45:28;;;;;;;;;;;;;;;16.56;100.00;97742.53;5156200;27;19990;-65
2023/04/29 12:47:56;;;;;;;;;;;;;;;16.48;100.00;97743.22;5156192;27;19946;-66
2023/04/29 12:50:28;;;;;;;;;;;;;;;16.59;100.00;97744.63;5155918;27;19980;-66
2023/04/29 12:52:55;;;;;;;;;;;;;;;16.53;100.00;97746.59;5147493;28;19967;-67
2023/04/29 12:55:21;;;;;;;;;;;;;;;16.81;100.00;97741.94;5147088;28;19984;-66
2023/04/29 12:57:47;;;;;;;;;;;;;;;16.91;100.00;97730.91;5147068;28;19923;-65
2023/04/29 13:00:14;;;;;;;;;;;;;;;17.16;100.00;97732.97;5147077;28;19987;-64
2023/04/29 13:02:40;;;;;;;;;;;;;;;17.25;100.00;97727.59;5146914;28;19923;-65
2023/04/29 13:05:08;;;;;;;;;;;;;;;16.98;100.00;97738.56;5146895;27;19927;-64
2023/04/29 13:07:35;;;;;;;;;;;;;;;16.90;100.00;97736.59;5134076;27;19958;-64
2023/04/29 13:10:02;;;;;;;;;;;;;;;17.10;100.00;97722.59;5145189;27;19923;-64
2023/04/29 13:12:28;;;;;;;;;;;;;;;17.17;100.00;97733.75;5144819;27;19924;-66
2023/04/29 13:14:55;;;;;;;;;;;;;;;17.13;100.00;97730.06;5141690;27;19935;-65
2023/04/29 13:17:21;;;;;;;;;;;;;;;17.03;100.00;97724.94;5141570;27;19924;-66
2023/04/29 13:19:47;;;;;;;;;;;;;;;16.75;100.00;97732.38;5144442;27;19934;-65
2023/04/29 13:22:15;;;;;;;;;;;;;;;17.00;100.00;97726.34;5145070;27;19944;-66
2023/04/29 13:24:41;;;;;;;;;;;;;;;17.15;100.00;97728.66;5142870;27;20487;-71
2023/04/29 13:27:08;;;;;;;;;;;;;;;17.07;100.00;97729.41;5123166;28;19975;-69
2023/04/29 13:29:35;;;;;;;;;;;;;;;17.04;100.00;97727.34;5142401;27;19934;-70
2023/04/29 13:32:01;;;;;;;;;;;;;;;16.71;100.00;97734.88;5145065;27;19923;-69